Historique des mesures à Cassis (13260), France
Quotidien Résumé Mars 18, 2018 Unités:  Métrique    US   Métrique/US
« Précédent (Jour)
Suivant (Jour) »
Quotidien Hebdomadaire Mensuel Annuel Période au choix
  Maximum: Minimum: Moyenne:
Température: TemperatureC °C 7.9 °C 10 °C
Point de rosée: DewpointC °C 0.4 °C 3 °C
Humidité: Humidity % 48 % 59 %
Vitesse du vent: 0 km/h 0 km/h 17.4 km/h
Rafales: 0 km/h - -
Vent:- - WSW
Pression: PressurehPa hPa 988.7 hPa -
Précipitations: 0.0 mm    
Historical Graphs
 
 
Mesures pour : Mars 18, 2018
Heure Temperature Point de rosée Pression Vent Vitesse du vent Rafales Humidité Pluie (par heure) Conditions
TemperatureC °C DewpointC °C PressurehPa hPa Calm     Humidity % HourlyPrecipMM mm SoftwareType W/m2
00:11 9.9 °C 4.7 °C 990.1 hPa West 27.7 km/h 27.7 km/h 70 % 0.0 mm open2300-1.11 W/m2
01:12 9.6 °C 4.2 °C 989.4 hPa NNW 25.4 km/h 25.4 km/h 69 % 0.0 mm open2300-1.11 W/m2
02:12 9.2 °C 4.2 °C 989.1 hPa Calm   4.7 km/h 71 % 0.0 mm open2300-1.11 W/m2
03:11 8.9 °C 4.1 °C 988.7 hPa NW 6.9 km/h 12.7 km/h 72 % 0.0 mm open2300-1.11 W/m2
04:11 9.2 °C 4.0 °C 988.7 hPa WNW 5.1 km/h 11.6 km/h 70 % 0.0 mm open2300-1.11 W/m2
05:11 8.8 °C 4.2 °C 989.1 hPa WNW 8.9 km/h 8.9 km/h 73 % 0.0 mm open2300-1.11 W/m2
06:11 8.2 °C 3.8 °C 989.1 hPa WNW 30.1 km/h 30.1 km/h 74 % 0.0 mm open2300-1.11 W/m2
07:12 7.9 °C 3.6 °C 989.4 hPa West 19.6 km/h 19.6 km/h 74 % 0.0 mm open2300-1.11 W/m2
08:12 8.4 °C 3.6 °C 989.4 hPa NW 9.3 km/h 25.4 km/h 72 % 0.0 mm open2300-1.11 W/m2
09:11 9.2 °C 4.2 °C 990.4 hPa North 7.6 km/h 15.6 km/h 71 % 0.0 mm open2300-1.11 W/m2
10:12 10.1 °C 4.0 °C 991.1 hPa WNW 12.7 km/h 12.7 km/h 66 % 0.0 mm open2300-1.11 W/m2
11:11 11.4 °C 4.6 °C 991.4 hPa NW 9.3 km/h 9.3 km/h 63 % 0.0 mm open2300-1.11 W/m2
12:11 12.1 °C 4.6 °C 991.4 hPa NW 12.2 km/h 41.7 km/h 60 % 0.0 mm open2300-1.11 W/m2
13:11 12.4 °C 4.6 °C 991.8 hPa NNE 12.2 km/h 30.1 km/h 59 % 0.0 mm open2300-1.11 W/m2
14:12 12.3 °C 3.7 °C 992.1 hPa WNW 20.3 km/h 52 km/h 56 % 0.0 mm open2300-1.11 W/m2
15:11 12.6 °C 2.9 °C 992.1 hPa WNW 37 km/h 37 km/h 52 % 0.0 mm open2300-1.11 W/m2
16:12 12.6 °C 2.1 °C 992.1 hPa NW 50.5 km/h 50.5 km/h 49 % 0.0 mm open2300-1.11 W/m2
17:11 12.3 °C 1.6 °C 992.4 hPa NNW 8.9 km/h 23.8 km/h 48 % 0.0 mm open2300-1.11 W/m2
18:11 11.9 °C 1.5 °C 992.8 hPa NW 26.2 km/h 33.2 km/h 49 % 0.0 mm open2300-1.11 W/m2
19:11 11.3 °C 1.5 °C 993.5 hPa WNW 20.3 km/h 47.3 km/h 51 % 0.0 mm open2300-1.11 W/m2
20:12 10.9 °C 1.2 °C 994.1 hPa North 18.7 km/h 36.5 km/h 51 % 0.0 mm open2300-1.11 W/m2
21:11 10.6 °C 0.9 °C 994.8 hPa North 23 km/h 37 km/h 51 % 0.0 mm open2300-1.11 W/m2
22:12 10.4 °C 0.4 °C 995.1 hPa NW 19.2 km/h 43.5 km/h 50 % 0.0 mm open2300-1.11 W/m2
23:12 9.9 °C 0.5 °C 995.5 hPa NW 23.8 km/h 46.8 km/h 52 % 0.0 mm open2300-1.11 W/m2
Observations météo à CASSIS
WU-History script by Weather Underground - 1 mb